sensor_id;sensor_type;location;lat;lon;timestamp;P1;durP1;ratioP1;P2;durP2;ratioP2
65092;SDS011;52025;50.288;2.794;2023-03-04T08:21:20;7.95;;;2.03;;
65092;SDS011;52025;50.288;2.794;2023-03-04T08:23:51;8.65;;;2.35;;
65092;SDS011;52025;50.288;2.794;2023-03-04T08:26:21;7.00;;;1.83;;
65092;SDS011;52025;50.288;2.794;2023-03-04T08:28:47;10.07;;;2.30;;
65092;SDS011;52025;50.288;2.794;2023-03-04T08:31:13;8.35;;;1.92;;
65092;SDS011;52025;50.288;2.794;2023-03-04T08:33:38;11.80;;;2.17;;
65092;SDS011;52025;50.288;2.794;2023-03-04T08:36:03;6.65;;;1.77;;
65092;SDS011;52025;50.288;2.794;2023-03-04T08:38:29;10.05;;;2.10;;
65092;SDS011;52025;50.288;2.794;2023-03-04T08:40:55;8.00;;;1.73;;
65092;SDS011;52025;50.288;2.794;2023-03-04T08:43:21;8.05;;;1.60;;
65092;SDS011;52025;50.288;2.794;2023-03-04T08:45:47;8.02;;;1.75;;
65092;SDS011;52025;50.288;2.794;2023-03-04T08:48:12;7.20;;;1.67;;
65092;SDS011;52025;50.288;2.794;2023-03-04T08:50:38;9.02;;;1.70;;
65092;SDS011;52025;50.288;2.794;2023-03-04T08:53:09;9.20;;;2.20;;
65092;SDS011;52025;50.288;2.794;2023-03-04T08:55:40;5.10;;;1.58;;
65092;SDS011;52025;50.288;2.794;2023-03-04T08:58:13;7.80;;;1.95;;
65092;SDS011;52025;50.288;2.794;2023-03-04T09:00:47;10.88;;;1.80;;
65092;SDS011;52025;50.288;2.794;2023-03-04T09:03:16;7.95;;;1.65;;
65092;SDS011;52025;50.288;2.794;2023-03-04T09:05:44;6.55;;;1.50;;
65092;SDS011;52025;50.288;2.794;2023-03-04T09:08:09;6.50;;;1.42;;
65092;SDS011;52025;50.288;2.794;2023-03-04T09:10:34;7.80;;;1.63;;
65092;SDS011;52025;50.288;2.794;2023-03-04T09:13:00;9.13;;;1.60;;
65092;SDS011;52025;50.288;2.794;2023-03-04T09:15:25;5.82;;;1.75;;
65092;SDS011;52025;50.288;2.794;2023-03-04T09:17:51;8.75;;;1.55;;
65092;SDS011;52025;50.288;2.794;2023-03-04T09:20:16;6.15;;;1.58;;
65092;SDS011;52025;50.288;2.794;2023-03-04T09:22:41;11.02;;;2.00;;
65092;SDS011;52025;50.288;2.794;2023-03-04T09:25:07;9.68;;;2.28;;
65092;SDS011;52025;50.288;2.794;2023-03-04T09:27:32;6.80;;;1.98;;
65092;SDS011;52025;50.288;2.794;2023-03-04T09:29:58;9.05;;;1.77;;
65092;SDS011;52025;50.288;2.794;2023-03-04T09:32:23;5.20;;;1.40;;
65092;SDS011;52025;50.288;2.794;2023-03-04T09:34:48;5.32;;;1.48;;
65092;SDS011;52025;50.288;2.794;2023-03-04T09:37:16;10.10;;;1.77;;
65092;SDS011;52025;50.288;2.794;2023-03-04T09:39:42;6.35;;;1.60;;
65092;SDS011;52025;50.288;2.794;2023-03-04T09:42:08;8.05;;;1.35;;
65092;SDS011;52025;50.288;2.794;2023-03-04T09:44:40;7.90;;;1.75;;
65092;SDS011;52025;50.288;2.794;2023-03-04T09:47:15;5.70;;;1.30;;
65092;SDS011;52025;50.288;2.794;2023-03-04T09:49:49;7.75;;;1.60;;
65092;SDS011;52025;50.288;2.794;2023-03-04T10:00:06;5.03;;;1.60;;
65092;SDS011;52025;50.288;2.794;2023-03-04T10:02:52;5.18;;;1.20;;
65092;SDS011;52025;50.288;2.794;2023-03-04T10:05:23;5.15;;;1.10;;
65092;SDS011;52025;50.288;2.794;2023-03-04T10:07:54;3.88;;;1.10;;
65092;SDS011;52025;50.288;2.794;2023-03-04T10:10:24;4.30;;;1.30;;
65092;SDS011;52025;50.288;2.794;2023-03-04T10:12:52;5.22;;;1.17;;
65092;SDS011;52025;50.288;2.794;2023-03-04T10:15:33;5.38;;;0.95;;
65092;SDS011;52025;50.288;2.794;2023-03-04T10:18:13;4.63;;;1.27;;
65092;SDS011;52025;50.288;2.794;2023-03-04T10:23:28;4.80;;;1.92;;
65092;SDS011;52025;50.288;2.794;2023-03-04T10:25:53;3.58;;;1.20;;
65092;SDS011;52025;50.288;2.794;2023-03-04T10:33:50;4.35;;;1.48;;
65092;SDS011;52025;50.288;2.794;2023-03-04T10:38:53;4.90;;;1.50;;
65092;SDS011;52025;50.288;2.794;2023-03-04T10:41:22;4.03;;;1.40;;
65092;SDS011;52025;50.288;2.794;2023-03-04T10:43:50;4.72;;;1.25;;
65092;SDS011;52025;50.288;2.794;2023-03-04T10:46:24;4.80;;;1.48;;
65092;SDS011;52025;50.288;2.794;2023-03-04T10:48:49;5.10;;;1.25;;
65092;SDS011;52025;50.288;2.794;2023-03-04T10:51:19;5.72;;;1.50;;
65092;SDS011;52025;50.288;2.794;2023-03-04T10:53:44;4.90;;;1.10;;
65092;SDS011;52025;50.288;2.794;2023-03-04T10:58:56;6.18;;;1.65;;
65092;SDS011;52025;50.288;2.794;2023-03-04T11:01:39;4.32;;;1.30;;
65092;SDS011;52025;50.288;2.794;2023-03-04T11:04:08;5.40;;;1.45;;
65092;SDS011;52025;50.288;2.794;2023-03-04T11:06:44;6.68;;;1.90;;
65092;SDS011;52025;50.288;2.794;2023-03-04T11:09:20;5.15;;;1.75;;
65092;SDS011;52025;50.288;2.794;2023-03-04T11:11:45;14.30;;;2.50;;
65092;SDS011;52025;50.288;2.794;2023-03-04T11:14:27;6.00;;;1.88;;
65092;SDS011;52025;50.288;2.794;2023-03-04T11:16:58;5.70;;;1.20;;
65092;SDS011;52025;50.288;2.794;2023-03-04T11:19:24;2.42;;;0.95;;
65092;SDS011;52025;50.288;2.794;2023-03-04T11:21:52;5.95;;;1.20;;
65092;SDS011;52025;50.288;2.794;2023-03-04T11:24:25;6.28;;;1.42;;
65092;SDS011;52025;50.288;2.794;2023-03-04T11:26:59;3.45;;;1.92;;
65092;SDS011;52025;50.288;2.794;2023-03-04T11:29:46;5.03;;;1.75;;
65092;SDS011;52025;50.288;2.794;2023-03-04T11:32:19;4.75;;;1.42;;
65092;SDS011;52025;50.288;2.794;2023-03-04T11:34:51;7.68;;;1.90;;
65092;SDS011;52025;50.288;2.794;2023-03-04T11:37:27;6.05;;;1.52;;
65092;SDS011;52025;50.288;2.794;2023-03-04T11:39:55;6.53;;;2.28;;
65092;SDS011;52025;50.288;2.794;2023-03-04T11:42:30;8.75;;;1.50;;
65092;SDS011;52025;50.288;2.794;2023-03-04T11:44:57;6.85;;;1.40;;
65092;SDS011;52025;50.288;2.794;2023-03-04T11:49:57;9.40;;;2.00;;
65092;SDS011;52025;50.288;2.794;2023-03-04T11:52:27;4.68;;;1.52;;
65092;SDS011;52025;50.288;2.794;2023-03-04T11:57:29;5.88;;;1.50;;
65092;SDS011;52025;50.288;2.794;2023-03-04T12:17:36;3.85;;;1.08;;
65092;SDS011;52025;50.288;2.794;2023-03-04T12:20:26;4.07;;;1.00;;
65092;SDS011;52025;50.288;2.794;2023-03-04T12:28:22;5.30;;;1.45;;
65092;SDS011;52025;50.288;2.794;2023-03-04T12:31:05;5.35;;;1.60;;
65092;SDS011;52025;50.288;2.794;2023-03-04T12:44:15;2.42;;;1.00;;
65092;SDS011;52025;50.288;2.794;2023-03-04T12:52:22;6.25;;;2.30;;
65092;SDS011;52025;50.288;2.794;2023-03-04T12:54:57;4.90;;;1.70;;
65092;SDS011;52025;50.288;2.794;2023-03-04T12:57:24;6.13;;;1.30;;
65092;SDS011;52025;50.288;2.794;2023-03-04T13:02:21;3.78;;;1.73;;
65092;SDS011;52025;50.288;2.794;2023-03-04T13:05:00;5.10;;;1.80;;
65092;SDS011;52025;50.288;2.794;2023-03-04T13:10:18;3.92;;;1.75;;
65092;SDS011;52025;50.288;2.794;2023-03-04T13:15:30;4.25;;;1.52;;
65092;SDS011;52025;50.288;2.794;2023-03-04T13:17:57;4.75;;;1.60;;
65092;SDS011;52025;50.288;2.794;2023-03-04T13:26:45;6.05;;;1.40;;
65092;SDS011;52025;50.288;2.794;2023-03-04T13:29:29;7.13;;;1.42;;
65092;SDS011;52025;50.288;2.794;2023-03-04T13:32:00;4.50;;;1.20;;
65092;SDS011;52025;50.288;2.794;2023-03-04T13:34:48;4.40;;;1.40;;
65092;SDS011;52025;50.288;2.794;2023-03-04T13:37:27;6.32;;;1.40;;
65092;SDS011;52025;50.288;2.794;2023-03-04T13:42:41;4.45;;;1.20;;
65092;SDS011;52025;50.288;2.794;2023-03-04T13:45:31;6.30;;;1.23;;
65092;SDS011;52025;50.288;2.794;2023-03-04T13:47:53;3.17;;;1.00;;
65092;SDS011;52025;50.288;2.794;2023-03-04T13:50:30;3.50;;;1.10;;
65092;SDS011;52025;50.288;2.794;2023-03-04T13:53:18;4.95;;;1.10;;
65092;SDS011;52025;50.288;2.794;2023-03-04T13:55:57;2.17;;;0.90;;
65092;SDS011;52025;50.288;2.794;2023-03-04T13:58:26;4.43;;;1.35;;
65092;SDS011;52025;50.288;2.794;2023-03-04T14:00:52;4.60;;;1.40;;
65092;SDS011;52025;50.288;2.794;2023-03-04T14:03:19;3.47;;;1.40;;
65092;SDS011;52025;50.288;2.794;2023-03-04T14:05:45;5.07;;;1.30;;
65092;SDS011;52025;50.288;2.794;2023-03-04T14:08:17;6.20;;;1.95;;
65092;SDS011;52025;50.288;2.794;2023-03-04T14:10:43;5.60;;;2.33;;
65092;SDS011;52025;50.288;2.794;2023-03-04T14:13:11;5.25;;;1.38;;
65092;SDS011;52025;50.288;2.794;2023-03-04T14:15:36;8.88;;;2.58;;
65092;SDS011;52025;50.288;2.794;2023-03-04T14:18:03;6.25;;;2.45;;
65092;SDS011;52025;50.288;2.794;2023-03-04T14:23:43;5.00;;;1.48;;
65092;SDS011;52025;50.288;2.794;2023-03-04T14:26:29;3.22;;;1.20;;
65092;SDS011;52025;50.288;2.794;2023-03-04T14:32:15;9.52;;;1.92;;
65092;SDS011;52025;50.288;2.794;2023-03-04T14:34:45;4.80;;;1.30;;
65092;SDS011;52025;50.288;2.794;2023-03-04T14:37:29;4.50;;;1.20;;
65092;SDS011;52025;50.288;2.794;2023-03-04T14:39:59;3.38;;;1.30;;
65092;SDS011;52025;50.288;2.794;2023-03-04T14:46:00;2.33;;;0.85;;
65092;SDS011;52025;50.288;2.794;2023-03-04T15:10:05;4.75;;;1.20;;
65092;SDS011;52025;50.288;2.794;2023-03-04T15:12:33;8.25;;;1.70;;
65092;SDS011;52025;50.288;2.794;2023-03-04T15:17:58;5.47;;;1.80;;
65092;SDS011;52025;50.288;2.794;2023-03-04T15:20:25;4.00;;;1.02;;
65092;SDS011;52025;50.288;2.794;2023-03-04T15:25:16;7.77;;;2.17;;
65092;SDS011;52025;50.288;2.794;2023-03-04T15:27:43;4.10;;;1.75;;
65092;SDS011;52025;50.288;2.794;2023-03-04T15:30:15;5.00;;;2.22;;
65092;SDS011;52025;50.288;2.794;2023-03-04T15:32:41;4.53;;;1.95;;
65092;SDS011;52025;50.288;2.794;2023-03-04T15:35:11;7.88;;;1.90;;
65092;SDS011;52025;50.288;2.794;2023-03-04T15:37:36;5.40;;;1.95;;
65092;SDS011;52025;50.288;2.794;2023-03-04T15:40:01;5.55;;;2.08;;
65092;SDS011;52025;50.288;2.794;2023-03-04T15:42:28;5.32;;;2.85;;
65092;SDS011;52025;50.288;2.794;2023-03-04T15:44:54;7.05;;;2.70;;
65092;SDS011;52025;50.288;2.794;2023-03-04T15:47:19;3.95;;;1.65;;
65092;SDS011;52025;50.288;2.794;2023-03-04T15:49:44;4.30;;;1.17;;
65092;SDS011;52025;50.288;2.794;2023-03-04T15:52:15;6.45;;;1.30;;
65092;SDS011;52025;50.288;2.794;2023-03-04T15:54:42;6.35;;;1.60;;
65092;SDS011;52025;50.288;2.794;2023-03-04T15:57:11;5.43;;;1.25;;
65092;SDS011;52025;50.288;2.794;2023-03-04T15:59:39;3.67;;;0.93;;
65092;SDS011;52025;50.288;2.794;2023-03-04T16:02:13;2.40;;;0.98;;
65092;SDS011;52025;50.288;2.794;2023-03-04T16:04:39;2.67;;;0.95;;
65092;SDS011;52025;50.288;2.794;2023-03-04T16:07:05;2.55;;;0.88;;
65092;SDS011;52025;50.288;2.794;2023-03-04T16:09:30;6.15;;;1.27;;
65092;SDS011;52025;50.288;2.794;2023-03-04T16:11:55;4.55;;;1.35;;
65092;SDS011;52025;50.288;2.794;2023-03-04T16:14:25;5.40;;;1.50;;
65092;SDS011;52025;50.288;2.794;2023-03-04T16:16:51;2.22;;;1.10;;
65092;SDS011;52025;50.288;2.794;2023-03-04T16:19:25;2.03;;;0.90;;
65092;SDS011;52025;50.288;2.794;2023-03-04T16:21:50;5.68;;;3.20;;
65092;SDS011;52025;50.288;2.794;2023-03-04T16:24:16;3.95;;;1.30;;
65092;SDS011;52025;50.288;2.794;2023-03-04T16:26:42;2.78;;;1.00;;
65092;SDS011;52025;50.288;2.794;2023-03-04T16:29:28;2.45;;;1.25;;
65092;SDS011;52025;50.288;2.794;2023-03-04T16:31:53;2.22;;;0.82;;
65092;SDS011;52025;50.288;2.794;2023-03-04T16:34:21;2.78;;;0.90;;
65092;SDS011;52025;50.288;2.794;2023-03-04T16:37:11;2.60;;;0.80;;
65092;SDS011;52025;50.288;2.794;2023-03-04T16:39:32;3.92;;;1.25;;
65092;SDS011;52025;50.288;2.794;2023-03-04T16:42:01;3.20;;;1.30;;
65092;SDS011;52025;50.288;2.794;2023-03-04T16:44:49;4.40;;;1.80;;
65092;SDS011;52025;50.288;2.794;2023-03-04T16:47:16;6.18;;;1.52;;
65092;SDS011;52025;50.288;2.794;2023-03-04T16:49:42;4.05;;;1.20;;
65092;SDS011;52025;50.288;2.794;2023-03-04T16:52:07;3.00;;;1.45;;
65092;SDS011;52025;50.288;2.794;2023-03-04T16:54:38;3.10;;;1.30;;
65092;SDS011;52025;50.288;2.794;2023-03-04T17:00:11;4.03;;;1.42;;
65092;SDS011;52025;50.288;2.794;2023-03-04T17:05:31;5.60;;;1.98;;
65092;SDS011;52025;50.288;2.794;2023-03-04T17:08:02;4.32;;;1.58;;
65092;SDS011;52025;50.288;2.794;2023-03-04T17:10:30;3.85;;;1.92;;
65092;SDS011;52025;50.288;2.794;2023-03-04T17:12:55;4.15;;;1.60;;
65092;SDS011;52025;50.288;2.794;2023-03-04T17:15:21;3.45;;;1.38;;
65092;SDS011;52025;50.288;2.794;2023-03-04T17:18:19;2.90;;;1.02;;
65092;SDS011;52025;50.288;2.794;2023-03-04T17:20:38;2.30;;;0.90;;
65092;SDS011;52025;50.288;2.794;2023-03-04T17:23:03;4.78;;;1.98;;
65092;SDS011;52025;50.288;2.794;2023-03-04T17:25:29;4.88;;;1.48;;
65092;SDS011;52025;50.288;2.794;2023-03-04T17:27:54;5.05;;;2.47;;
65092;SDS011;52025;50.288;2.794;2023-03-04T17:30:22;4.78;;;1.90;;
65092;SDS011;52025;50.288;2.794;2023-03-04T17:32:48;4.70;;;1.73;;
65092;SDS011;52025;50.288;2.794;2023-03-04T17:35:25;6.43;;;1.80;;
65092;SDS011;52025;50.288;2.794;2023-03-04T17:37:50;3.33;;;1.38;;
65092;SDS011;52025;50.288;2.794;2023-03-04T17:40:16;5.35;;;2.15;;
65092;SDS011;52025;50.288;2.794;2023-03-04T17:42:41;5.38;;;1.83;;
65092;SDS011;52025;50.288;2.794;2023-03-04T17:45:07;5.90;;;2.20;;
65092;SDS011;52025;50.288;2.794;2023-03-04T17:47:33;6.07;;;2.10;;
65092;SDS011;52025;50.288;2.794;2023-03-04T17:49:58;6.50;;;3.92;;
65092;SDS011;52025;50.288;2.794;2023-03-04T17:52:23;7.80;;;3.58;;
65092;SDS011;52025;50.288;2.794;2023-03-04T17:54:48;7.28;;;3.80;;
65092;SDS011;52025;50.288;2.794;2023-03-04T17:57:14;6.80;;;2.95;;
65092;SDS011;52025;50.288;2.794;2023-03-04T17:59:39;4.38;;;2.05;;
65092;SDS011;52025;50.288;2.794;2023-03-04T18:04:55;5.68;;;1.73;;
65092;SDS011;52025;50.288;2.794;2023-03-04T18:07:26;8.02;;;2.63;;
65092;SDS011;52025;50.288;2.794;2023-03-04T18:09:52;3.72;;;1.75;;
65092;SDS011;52025;50.288;2.794;2023-03-04T18:12:18;10.27;;;1.95;;
65092;SDS011;52025;50.288;2.794;2023-03-04T18:14:43;6.25;;;2.40;;
65092;SDS011;52025;50.288;2.794;2023-03-04T18:17:08;4.93;;;2.35;;
65092;SDS011;52025;50.288;2.794;2023-03-04T18:19:37;5.78;;;2.25;;
65092;SDS011;52025;50.288;2.794;2023-03-04T18:22:02;3.80;;;1.90;;
65092;SDS011;52025;50.288;2.794;2023-03-04T18:24:28;4.78;;;2.33;;
65092;SDS011;52025;50.288;2.794;2023-03-04T18:26:53;5.18;;;1.90;;
65092;SDS011;52025;50.288;2.794;2023-03-04T18:29:23;5.10;;;1.85;;
65092;SDS011;52025;50.288;2.794;2023-03-04T18:31:48;6.18;;;2.15;;
65092;SDS011;52025;50.288;2.794;2023-03-04T18:34:14;5.43;;;2.15;;
65092;SDS011;52025;50.288;2.794;2023-03-04T18:36:42;6.85;;;2.03;;
65092;SDS011;52025;50.288;2.794;2023-03-04T18:39:07;4.72;;;1.80;;
65092;SDS011;52025;50.288;2.794;2023-03-04T18:41:40;5.63;;;2.30;;
65092;SDS011;52025;50.288;2.794;2023-03-04T18:44:22;6.63;;;2.10;;
65092;SDS011;52025;50.288;2.794;2023-03-04T18:46:49;8.45;;;2.35;;
65092;SDS011;52025;50.288;2.794;2023-03-04T18:49:16;6.30;;;2.63;;
65092;SDS011;52025;50.288;2.794;2023-03-04T18:51:43;6.10;;;2.00;;
65092;SDS011;52025;50.288;2.794;2023-03-04T18:54:09;3.75;;;1.88;;
65092;SDS011;52025;50.288;2.794;2023-03-04T18:56:39;4.13;;;1.77;;
65092;SDS011;52025;50.288;2.794;2023-03-04T18:59:07;4.07;;;1.60;;
65092;SDS011;52025;50.288;2.794;2023-03-04T19:01:38;3.38;;;1.58;;
65092;SDS011;52025;50.288;2.794;2023-03-04T19:04:04;4.40;;;1.58;;
65092;SDS011;52025;50.288;2.794;2023-03-04T19:06:33;3.90;;;1.75;;
65092;SDS011;52025;50.288;2.794;2023-03-04T19:08:58;4.68;;;1.73;;
65092;SDS011;52025;50.288;2.794;2023-03-04T19:11:26;5.03;;;2.08;;
65092;SDS011;52025;50.288;2.794;2023-03-04T19:13:55;5.22;;;1.70;;
65092;SDS011;52025;50.288;2.794;2023-03-04T19:21:49;3.30;;;1.60;;
65092;SDS011;52025;50.288;2.794;2023-03-04T19:27:13;4.90;;;2.30;;
65092;SDS011;52025;50.288;2.794;2023-03-04T19:30:12;7.25;;;2.17;;
65092;SDS011;52025;50.288;2.794;2023-03-04T19:32:45;6.15;;;2.17;;
65092;SDS011;52025;50.288;2.794;2023-03-04T19:35:11;3.65;;;1.90;;
65092;SDS011;52025;50.288;2.794;2023-03-04T19:37:36;5.50;;;2.10;;
65092;SDS011;52025;50.288;2.794;2023-03-04T19:40:08;5.88;;;2.38;;
65092;SDS011;52025;50.288;2.794;2023-03-04T19:42:59;4.45;;;2.25;;
65092;SDS011;52025;50.288;2.794;2023-03-04T19:45:24;7.50;;;2.50;;
65092;SDS011;52025;50.288;2.794;2023-03-04T19:47:54;7.45;;;2.72;;
65092;SDS011;52025;50.288;2.794;2023-03-04T19:50:21;6.93;;;2.70;;
65092;SDS011;52025;50.288;2.794;2023-03-04T19:52:54;5.28;;;1.75;;
65092;SDS011;52025;50.288;2.794;2023-03-04T19:55:19;6.88;;;2.30;;
65092;SDS011;52025;50.288;2.794;2023-03-04T19:57:45;5.00;;;2.30;;
65092;SDS011;52025;50.288;2.794;2023-03-04T20:00:10;4.32;;;2.05;;
65092;SDS011;52025;50.288;2.794;2023-03-04T20:02:53;3.80;;;1.83;;
65092;SDS011;52025;50.288;2.794;2023-03-04T20:05:32;4.25;;;2.05;;
65092;SDS011;52025;50.288;2.794;2023-03-04T20:07:58;5.30;;;2.22;;
65092;SDS011;52025;50.288;2.794;2023-03-04T20:10:25;6.53;;;2.55;;
65092;SDS011;52025;50.288;2.794;2023-03-04T20:13:12;10.02;;;2.72;;
65092;SDS011;52025;50.288;2.794;2023-03-04T20:15:40;4.88;;;2.20;;
65092;SDS011;52025;50.288;2.794;2023-03-04T20:18:18;6.88;;;2.40;;
65092;SDS011;52025;50.288;2.794;2023-03-04T20:21:04;3.97;;;2.13;;
65092;SDS011;52025;50.288;2.794;2023-03-04T20:23:40;5.93;;;2.25;;
65092;SDS011;52025;50.288;2.794;2023-03-04T20:26:05;6.18;;;2.38;;
65092;SDS011;52025;50.288;2.794;2023-03-04T20:28:31;6.40;;;2.50;;
65092;SDS011;52025;50.288;2.794;2023-03-04T20:33:34;6.90;;;2.15;;
65092;SDS011;52025;50.288;2.794;2023-03-04T20:35:59;7.18;;;3.08;;
65092;SDS011;52025;50.288;2.794;2023-03-04T20:38:25;4.05;;;2.05;;
65092;SDS011;52025;50.288;2.794;2023-03-04T20:40:50;6.70;;;2.35;;
65092;SDS011;52025;50.288;2.794;2023-03-04T20:43:16;5.68;;;2.10;;
65092;SDS011;52025;50.288;2.794;2023-03-04T20:45:44;5.35;;;2.28;;
65092;SDS011;52025;50.288;2.794;2023-03-04T20:48:09;4.63;;;1.92;;
65092;SDS011;52025;50.288;2.794;2023-03-04T20:50:34;4.20;;;1.92;;
65092;SDS011;52025;50.288;2.794;2023-03-04T20:53:00;5.15;;;2.28;;
65092;SDS011;52025;50.288;2.794;2023-03-04T20:55:25;5.60;;;1.83;;
65092;SDS011;52025;50.288;2.794;2023-03-04T20:57:52;4.78;;;1.88;;
65092;SDS011;52025;50.288;2.794;2023-03-04T21:00:17;4.03;;;1.75;;
65092;SDS011;52025;50.288;2.794;2023-03-04T21:02:43;4.80;;;2.30;;
65092;SDS011;52025;50.288;2.794;2023-03-04T21:05:08;5.80;;;1.70;;
65092;SDS011;52025;50.288;2.794;2023-03-04T21:07:33;2.67;;;1.38;;
65092;SDS011;52025;50.288;2.794;2023-03-04T21:10:00;4.45;;;1.50;;
65092;SDS011;52025;50.288;2.794;2023-03-04T21:12:25;3.88;;;1.60;;
65092;SDS011;52025;50.288;2.794;2023-03-04T21:14:51;6.75;;;1.73;;
65092;SDS011;52025;50.288;2.794;2023-03-04T21:17:17;4.60;;;1.90;;
65092;SDS011;52025;50.288;2.794;2023-03-04T21:19:42;2.85;;;1.17;;
65092;SDS011;52025;50.288;2.794;2023-03-04T21:22:09;3.33;;;1.70;;
65092;SDS011;52025;50.288;2.794;2023-03-04T21:31:16;4.07;;;1.17;;
65092;SDS011;52025;50.288;2.794;2023-03-04T21:33:54;3.58;;;1.40;;
65092;SDS011;52025;50.288;2.794;2023-03-04T21:36:20;3.95;;;1.38;;
65092;SDS011;52025;50.288;2.794;2023-03-04T21:38:49;5.57;;;1.58;;
65092;SDS011;52025;50.288;2.794;2023-03-04T21:41:15;5.45;;;1.83;;
65092;SDS011;52025;50.288;2.794;2023-03-04T21:43:41;2.35;;;1.25;;
65092;SDS011;52025;50.288;2.794;2023-03-04T21:46:06;4.40;;;1.20;;
65092;SDS011;52025;50.288;2.794;2023-03-04T21:48:36;4.50;;;1.40;;
65092;SDS011;52025;50.288;2.794;2023-03-04T21:51:12;4.53;;;1.20;;
65092;SDS011;52025;50.288;2.794;2023-03-04T21:53:37;2.20;;;0.85;;
65092;SDS011;52025;50.288;2.794;2023-03-04T21:56:03;3.22;;;1.00;;
65092;SDS011;52025;50.288;2.794;2023-03-04T21:58:28;2.88;;;1.10;;
65092;SDS011;52025;50.288;2.794;2023-03-04T22:00:54;3.63;;;1.10;;
65092;SDS011;52025;50.288;2.794;2023-03-04T22:03:20;3.70;;;1.23;;
65092;SDS011;52025;50.288;2.794;2023-03-04T22:05:46;4.03;;;1.58;;
65092;SDS011;52025;50.288;2.794;2023-03-04T22:08:18;3.55;;;1.38;;
65092;SDS011;52025;50.288;2.794;2023-03-04T22:14:07;4.68;;;1.70;;
65092;SDS011;52025;50.288;2.794;2023-03-04T22:16:34;5.25;;;1.95;;
65092;SDS011;52025;50.288;2.794;2023-03-04T22:19:29;7.00;;;2.15;;
65092;SDS011;52025;50.288;2.794;2023-03-04T22:22:06;4.13;;;1.85;;
65092;SDS011;52025;50.288;2.794;2023-03-04T22:24:52;5.15;;;2.30;;
65092;SDS011;52025;50.288;2.794;2023-03-04T22:27:49;7.00;;;2.90;;
65092;SDS011;52025;50.288;2.794;2023-03-04T22:33:30;8.85;;;2.83;;
65092;SDS011;52025;50.288;2.794;2023-03-04T22:36:03;4.90;;;2.75;;
65092;SDS011;52025;50.288;2.794;2023-03-04T22:38:28;5.05;;;2.70;;
65092;SDS011;52025;50.288;2.794;2023-03-04T22:40:53;6.03;;;2.72;;
65092;SDS011;52025;50.288;2.794;2023-03-04T22:43:19;6.10;;;2.45;;
65092;SDS011;52025;50.288;2.794;2023-03-04T22:45:44;5.70;;;2.53;;
65092;SDS011;52025;50.288;2.794;2023-03-04T22:48:09;6.05;;;2.55;;
65092;SDS011;52025;50.288;2.794;2023-03-04T22:50:34;5.38;;;2.50;;
65092;SDS011;52025;50.288;2.794;2023-03-04T22:53:00;5.03;;;2.70;;
65092;SDS011;52025;50.288;2.794;2023-03-04T22:55:25;5.70;;;2.58;;
65092;SDS011;52025;50.288;2.794;2023-03-04T22:57:51;5.93;;;2.90;;
